Time;durP1;ratioP1;P1;durP2;ratioP2;P2;SDS_P1;SDS_P2;PMS_P1;PMS_P2;Temp;Humidity;BMP_temperature;BMP_pressure;BME280_temperature;BME280_humidity;BME280_pressure;Samples;Min_cycle;Max_cycle;Signal;HPM_P1;HPM_P2
2022/09/13 00:00:18;;;;;;;4.90;2.25;;;;;;;16.28;60.87;98625.63;5101281;28;20036;-92
2022/09/13 00:02:44;;;;;;;5.38;2.55;;;;;;;16.40;60.52;98650.00;5099262;28;20556;-89
2022/09/13 00:05:10;;;;;;;4.03;2.50;;;;;;;16.22;61.17;98632.19;5099821;28;20051;-91
2022/09/13 00:07:37;;;;;;;5.22;2.30;;;;;;;16.19;61.44;98630.53;5100579;28;20043;-93
2022/09/13 00:10:04;;;;;;;4.60;3.08;;;;;;;16.22;61.12;98650.94;5101514;28;20093;-92
2022/09/13 00:12:30;;;;;;;4.32;2.30;;;;;;;16.11;60.86;98637.22;5100796;28;20105;-93
2022/09/13 00:14:56;;;;;;;6.75;2.38;;;;;;;16.03;61.42;98634.97;5101973;28;20068;-92
2022/09/13 00:17:22;;;;;;;5.07;2.67;;;;;;;16.06;60.56;98626.75;5102072;28;20048;-93
2022/09/13 00:19:48;;;;;;;5.53;2.30;;;;;;;16.02;60.95;98617.97;5101324;28;20088;-92
2022/09/13 00:22:14;;;;;;;4.55;2.20;;;;;;;16.05;61.22;98642.91;5098323;28;20127;-92
2022/09/13 00:24:41;;;;;;;5.38;2.50;;;;;;;15.87;61.49;98628.63;5099084;28;20524;-91
2022/09/13 00:27:07;;;;;;;4.53;2.10;;;;;;;15.79;61.03;98616.50;5100084;28;20501;-90
2022/09/13 00:29:33;;;;;;;3.78;2.17;;;;;;;15.81;61.65;98633.38;5100019;28;20048;-90
2022/09/13 00:31:59;;;;;;;3.97;2.20;;;;;;;15.82;62.49;98632.41;5098689;28;20044;-91
2022/09/13 00:34:25;;;;;;;4.85;2.30;;;;;;;15.79;62.90;98642.44;5100817;28;20467;-92
2022/09/13 00:36:50;;;;;;;4.95;2.28;;;;;;;15.77;62.40;98644.34;5100842;28;20047;-92
2022/09/13 00:39:16;;;;;;;6.25;2.72;;;;;;;15.78;61.53;98643.38;5100304;28;20043;-92
2022/09/13 00:41:44;;;;;;;4.80;2.20;;;;;;;15.79;61.70;98637.09;5100172;28;20127;-93
2022/09/13 00:44:43;;;;;;;4.22;2.42;;;;;;;15.95;61.02;98653.25;5099155;28;20044;-91
2022/09/13 00:47:11;;;;;;;4.45;2.28;;;;;;;15.95;60.43;98650.56;5100595;28;20043;-92
2022/09/13 00:49:39;;;;;;;4.05;2.53;;;;;;;15.96;60.48;98652.28;5099754;28;20040;-93
2022/09/13 00:52:09;;;;;;;5.97;2.45;;;;;;;16.01;59.71;98653.81;5099041;28;20047;-90
2022/09/13 00:54:41;;;;;;;3.65;2.17;;;;;;;15.84;60.11;98640.41;5100274;28;20036;-91
2022/09/13 00:57:10;;;;;;;5.88;2.33;;;;;;;15.72;61.11;98639.22;5097089;28;20047;-92
2022/09/13 00:59:41;;;;;;;6.63;2.40;;;;;;;15.80;61.45;98661.13;5097793;28;20036;-92
2022/09/13 01:02:08;;;;;;;7.75;2.35;;;;;;;15.76;62.10;98664.03;5097612;28;20122;-91
2022/09/13 01:04:36;;;;;;;7.57;2.72;;;;;;;15.61;62.17;98638.81;5099011;28;20044;-94
2022/09/13 01:07:05;;;;;;;6.90;2.30;;;;;;;15.61;62.82;98653.13;5098985;28;20059;-93
2022/09/13 01:09:35;;;;;;;5.22;2.50;;;;;;;15.53;62.33;98619.59;5100798;28;20043;-92
2022/09/13 01:12:07;;;;;;;3.92;2.55;;;;;;;15.63;61.88;98650.34;5100493;28;21324;-91
2022/09/13 01:14:36;;;;;;;8.75;2.80;;;;;;;15.51;61.79;98642.91;5099825;28;20032;-91
2022/09/13 01:17:01;;;;;;;;;;;;;;;15.62;62.01;98659.34;5100417;28;20050;-91
2022/09/13 01:19:27;;;;;;;5.40;2.63;;;;;;;15.53;61.80;98649.06;5099426;28;20010;-92
2022/09/13 01:22:31;;;;;;;4.63;2.35;;;;;;;15.54;62.65;98657.03;5098900;28;20524;-93
2022/09/13 01:25:28;;;;;;;5.53;2.60;;;;;;;15.52;63.72;98655.38;5047507;28;20033;-89
2022/09/13 01:28:25;;;;;;;5.82;2.60;;;;;;;15.54;64.38;98656.16;5043904;28;20041;-90
2022/09/13 01:31:00;;;;;;;5.32;2.40;;;;;;;15.55;62.63;98663.28;4999003;28;20041;-92
2022/09/13 01:33:47;;;;;;;5.90;2.55;;;;;;;15.52;61.87;98650.88;5048529;28;20043;-93
2022/09/13 01:36:33;;;;;;;6.75;2.78;;;;;;;15.43;63.29;98654.00;5046830;28;20051;-91
2022/09/13 01:39:03;;;;;;;6.28;2.88;;;;;;;15.39;63.95;98647.91;5049144;28;20526;-90
2022/09/13 01:41:46;;;;;;;6.78;2.80;;;;;;;15.25;63.14;98626.31;5047054;28;20684;-90
2022/09/13 01:44:27;;;;;;;7.60;2.97;;;;;;;15.30;62.52;98632.28;5046211;28;20037;-93
2022/09/13 01:47:06;;;;;;;6.13;2.63;;;;;;;15.28;63.20;98627.97;5044917;28;20045;-90
2022/09/13 01:49:44;;;;;;;6.50;2.60;;;;;;;15.45;63.39;98667.34;5046837;28;20044;-91
2022/09/13 01:52:20;;;;;;;4.47;2.55;;;;;;;15.31;63.75;98652.81;5040381;28;20051;-92
2022/09/13 01:54:54;;;;;;;5.15;2.60;;;;;;;15.23;62.68;98638.91;5047831;28;20041;-92
2022/09/13 01:57:29;;;;;;;5.18;2.45;;;;;;;15.31;63.05;98652.81;5043365;28;20061;-92
2022/09/13 02:00:01;;;;;;;8.45;2.95;;;;;;;15.35;63.58;98664.22;5095435;28;20055;-91
2022/09/13 02:02:33;;;;;;;5.60;2.83;;;;;;;15.17;64.47;98623.13;5097905;28;20040;-91
2022/09/13 02:05:04;;;;;;;7.75;2.80;;;;;;;15.20;64.63;98636.34;5100504;28;20409;-91
2022/09/13 02:07:35;;;;;;;4.82;2.65;;;;;;;15.13;64.79;98632.25;5100948;28;20040;-91
2022/09/13 02:10:06;;;;;;;6.38;2.78;;;;;;;15.27;64.90;98656.56;5098703;28;20044;-92
2022/09/13 02:12:36;;;;;;;5.32;2.60;;;;;;;15.09;65.34;98631.50;5099308;28;20067;-91
2022/09/13 02:15:09;;;;;;;5.40;3.00;;;;;;;15.22;65.28;98649.69;5100296;28;20099;-91
2022/09/13 02:17:40;;;;;;;5.68;2.92;;;;;;;15.05;65.73;98623.69;5100108;28;20063;-91
2022/09/13 02:20:15;;;;;;;6.38;2.80;;;;;;;14.95;66.17;98623.28;5101779;28;20093;-92
2022/09/13 02:22:45;;;;;;;4.93;2.72;;;;;;;15.04;66.24;98638.03;5098541;28;20062;-91
2022/09/13 02:25:15;;;;;;;6.40;2.80;;;;;;;15.05;67.34;98640.66;5100764;28;20497;-91
2022/09/13 02:27:46;;;;;;;5.93;3.10;;;;;;;14.95;66.79;98624.13;5099622;28;20119;-91
2022/09/13 02:30:14;;;;;;;7.60;3.30;;;;;;;15.02;67.08;98638.09;5102049;28;20127;-93
2022/09/13 02:32:48;;;;;;;5.43;2.90;;;;;;;15.00;66.77;98631.94;5101937;28;20047;-90
2022/09/13 02:35:19;;;;;;;4.68;2.80;;;;;;;14.96;67.84;98620.53;5101487;28;20542;-91
2022/09/13 02:37:52;;;;;;;6.60;3.50;;;;;;;15.08;68.21;98658.38;5102265;28;20123;-90
2022/09/13 02:40:25;;;;;;;4.88;2.60;;;;;;;14.85;68.24;98624.63;5101668;28;20070;-92
2022/09/13 02:42:55;;;;;;;6.30;3.00;;;;;;;14.84;67.90;98625.59;5100513;28;20048;-92
2022/09/13 02:45:29;;;;;;;7.22;3.00;;;;;;;14.81;68.05;98626.59;5099806;28;20051;-91
2022/09/13 02:47:59;;;;;;;6.85;3.08;;;;;;;14.86;68.76;98640.63;5100945;28;20128;-91
2022/09/13 02:50:36;;;;;;;8.07;3.00;;;;;;;14.89;69.14;98645.84;5101381;28;20075;-91
2022/09/13 02:53:10;;;;;;;5.63;3.10;;;;;;;14.82;69.48;98633.69;5101747;28;20055;-91
2022/09/13 02:55:51;;;;;;;6.15;2.95;;;;;;;14.88;69.90;98646.78;5100278;28;20071;-91
2022/09/13 02:58:21;;;;;;;8.40;3.13;;;;;;;14.75;70.38;98622.41;5100196;28;20103;-91
2022/09/13 03:00:47;;;;;;;7.53;3.03;;;;;;;14.74;70.78;98623.31;5098535;28;20043;-92
2022/09/13 03:03:16;;;;;;;6.72;2.97;;;;;;;14.70;71.05;98623.53;5097387;28;20037;-93
2022/09/13 03:05:44;;;;;;;5.28;3.13;;;;;;;14.73;71.55;98634.13;5096634;28;20040;-92
2022/09/13 03:08:13;;;;;;;9.00;3.42;;;;;;;14.69;72.14;98629.84;5096827;28;20494;-93
2022/09/13 03:10:50;;;;;;;5.75;3.30;;;;;;;14.68;72.31;98638.78;5099723;28;20054;-93
2022/09/13 03:13:49;;;;;;;6.85;3.10;;;;;;;14.57;72.38;98631.25;5101143;28;20040;-93
2022/09/13 03:16:29;;;;;;;6.75;3.13;;;;;;;14.51;72.03;98613.66;5098193;28;20401;-91
2022/09/13 03:19:14;;;;;;;7.18;3.00;;;;;;;14.55;71.89;98625.09;5101701;28;20036;-92
2022/09/13 03:21:55;;;;;;;8.00;3.20;;;;;;;14.52;72.19;98620.75;5101078;28;20054;-91
2022/09/13 03:24:27;;;;;;;6.20;2.97;;;;;;;14.45;72.10;98610.41;5101982;28;20055;-91
2022/09/13 03:27:05;;;;;;;5.07;3.00;;;;;;;14.38;72.48;98609.81;5099391;28;20051;-91
2022/09/13 03:29:39;;;;;;;6.03;3.35;;;;;;;14.38;72.55;98615.16;5099709;28;20036;-89
2022/09/13 03:32:16;;;;;;;6.55;3.15;;;;;;;14.39;72.62;98612.41;5099381;28;20073;-89
2022/09/13 03:34:50;;;;;;;5.70;2.90;;;;;;;14.48;72.87;98629.84;5101678;28;20044;-92
2022/09/13 03:37:24;;;;;;;6.65;3.13;;;;;;;14.36;73.53;98614.34;5102427;28;20060;-90
2022/09/13 03:39:56;;;;;;;7.15;2.88;;;;;;;14.33;74.09;98611.81;5100584;28;20043;-91
2022/09/13 03:42:28;;;;;;;6.10;3.25;;;;;;;14.26;74.72;98605.00;5099236;28;20044;-91
2022/09/13 03:44:56;;;;;;;5.88;3.13;;;;;;;14.20;75.75;98602.59;5103603;28;20047;-91
2022/09/13 03:47:26;;;;;;;8.57;3.90;;;;;;;14.20;75.68;98611.47;5102899;28;20048;-92
2022/09/13 03:49:54;;;;;;;;;;;;;;;14.33;75.74;98630.53;5098726;28;20044;-90
2022/09/13 03:52:20;;;;;;;6.90;3.17;;;;;;;14.17;75.56;98612.50;5101557;28;19920;-91
2022/09/13 03:54:46;;;;;;;8.73;3.47;;;;;;;14.28;75.08;98628.06;5103551;28;20119;-94
2022/09/13 03:57:14;;;;;;;14.55;3.33;;;;;;;14.26;75.26;98619.22;5101874;28;20050;-92
2022/09/13 03:59:44;;;;;;;7.85;3.53;;;;;;;14.13;75.53;98599.31;5103584;28;20036;-95
2022/09/13 04:02:15;;;;;;;6.00;3.50;;;;;;;14.12;75.79;98606.47;5100858;28;20036;-91
2022/09/13 04:04:42;;;;;;;6.72;3.22;;;;;;;14.09;75.87;98608.41;5099533;28;20044;-91
2022/09/13 04:07:11;;;;;;;5.82;3.30;;;;;;;14.10;76.04;98607.50;5099193;28;20044;-92
2022/09/13 04:09:37;;;;;;;6.00;3.25;;;;;;;14.17;75.62;98625.88;5103102;28;20048;-93
2022/09/13 04:12:03;;;;;;;6.07;3.55;;;;;;;14.17;76.39;98631.22;5101961;28;20066;-93
2022/09/13 04:14:29;;;;;;;7.43;3.90;;;;;;;14.22;75.78;98640.84;5103146;28;20047;-92
2022/09/13 04:16:57;;;;;;;6.28;3.20;;;;;;;14.17;76.03;98636.56;5101404;28;20040;-90
2022/09/13 04:19:24;;;;;;;6.28;3.53;;;;;;;14.07;75.95;98611.16;5101843;28;20043;-91
2022/09/13 04:21:50;;;;;;;6.18;3.17;;;;;;;14.01;76.27;98615.91;5100970;28;20047;-90
2022/09/13 04:24:19;;;;;;;5.05;3.30;;;;;;;13.98;76.58;98608.88;5102538;28;20044;-92
2022/09/13 04:26:48;;;;;;;7.85;3.35;;;;;;;14.06;76.80;98628.16;5102880;28;20048;-91
2022/09/13 04:29:14;;;;;;;5.90;3.33;;;;;;;14.14;76.79;98647.41;5102975;28;20040;-92
2022/09/13 04:31:40;;;;;;;6.32;3.28;;;;;;;14.00;77.03;98614.16;5103758;28;20397;-91
2022/09/13 04:34:06;;;;;;;6.78;3.47;;;;;;;14.03;77.25;98622.94;5100958;28;20100;-92
2022/09/13 04:36:32;;;;;;;7.72;3.50;;;;;;;13.96;77.75;98605.41;5100925;28;20035;-93
2022/09/13 04:38:59;;;;;;;4.78;2.80;;;;;;;13.97;77.78;98612.50;5103157;28;20063;-93
2022/09/13 04:41:27;;;;;;;8.20;3.10;;;;;;;13.95;78.41;98612.56;5101692;28;20129;-92
2022/09/13 04:43:53;;;;;;;8.55;3.55;;;;;;;13.92;79.08;98614.50;5102898;28;20040;-93
2022/09/13 04:46:19;;;;;;;4.70;2.95;;;;;;;13.92;79.37;98609.16;5101858;28;20047;-92
2022/09/13 04:48:48;;;;;;;5.28;3.08;;;;;;;13.88;79.79;98612.88;5101707;28;20110;-92
2022/09/13 04:51:14;;;;;;;6.93;3.00;;;;;;;13.86;79.36;98610.28;5102518;28;20089;-92
2022/09/13 04:53:40;;;;;;;5.22;3.00;;;;;;;13.85;79.79;98618.38;5102590;28;20040;-93
2022/09/13 04:56:08;;;;;;;6.25;3.10;;;;;;;13.84;80.13;98617.50;5103958;28;20086;-91
2022/09/13 04:58:35;;;;;;;6.20;3.03;;;;;;;13.84;80.62;98627.34;5102915;28;20044;-93
2022/09/13 05:01:01;;;;;;;9.05;3.30;;;;;;;13.89;81.27;98642.22;5100402;28;20040;-90
2022/09/13 05:03:29;;;;;;;6.68;3.30;;;;;;;13.94;81.30;98652.72;5103074;28;20922;-92
2022/09/13 05:05:55;;;;;;;6.63;3.10;;;;;;;13.79;81.59;98632.84;5104283;28;20048;-91
2022/09/13 05:08:21;;;;;;;6.95;3.15;;;;;;;13.93;82.27;98651.84;5103644;28;20070;-91
2022/09/13 05:10:46;;;;;;;4.93;2.85;;;;;;;13.86;82.21;98646.84;5103721;28;20543;-91
2022/09/13 05:13:12;;;;;;;4.65;3.00;;;;;;;13.86;82.15;98644.19;5104156;28;20075;-92
2022/09/13 05:15:40;;;;;;;6.97;3.25;;;;;;;13.94;82.56;98658.06;5101985;28;20131;-90
2022/09/13 05:18:06;;;;;;;8.40;3.20;;;;;;;13.86;82.85;98636.16;5100162;28;20446;-92
2022/09/13 05:20:32;;;;;;;5.80;3.25;;;;;;;13.86;83.13;98638.84;5095685;28;20070;-92
2022/09/13 05:22:57;;;;;;;5.07;3.03;;;;;;;13.88;83.14;98634.25;5096805;28;20048;-92
2022/09/13 05:25:24;;;;;;;7.47;2.90;;;;;;;13.78;82.29;98617.75;5096991;28;20144;-93
2022/09/13 05:27:50;;;;;;;6.32;2.90;;;;;;;13.90;82.75;98633.28;5099484;28;20036;-93
2022/09/13 05:30:16;;;;;;;4.70;2.60;;;;;;;13.97;82.79;98633.91;5095561;28;20039;-93
2022/09/13 05:32:43;;;;;;;5.78;2.78;;;;;;;13.90;82.82;98614.59;5096326;28;20397;-92
2022/09/13 05:35:09;;;;;;;5.85;3.10;;;;;;;14.03;83.39;98635.41;5096342;28;20044;-93
2022/09/13 05:37:34;;;;;;;4.25;2.70;;;;;;;14.08;83.00;98630.75;5096910;28;20040;-93
2022/09/13 05:40:01;;;;;;;5.68;2.90;;;;;;;14.05;82.72;98623.75;5096615;28;20032;-92
2022/09/13 05:42:26;;;;;;;4.55;2.97;;;;;;;14.10;83.45;98635.09;5096031;28;20066;-92
2022/09/13 05:44:54;;;;;;;5.93;3.28;;;;;;;14.26;83.18;98640.63;5096522;28;20056;-92
2022/09/13 05:47:20;;;;;;;5.57;3.35;;;;;;;14.29;82.70;98621.78;5098019;28;20073;-92
2022/09/13 05:49:48;;;;;;;3.97;2.97;;;;;;;14.40;81.83;98621.31;5097941;28;20640;-93
2022/09/13 05:52:14;;;;;;;7.82;3.53;;;;;;;14.53;80.77;98621.59;5096882;28;20043;-94
2022/09/13 05:54:39;;;;;;;6.28;3.55;;;;;;;14.65;80.84;98613.06;5097553;28;20039;-94
2022/09/13 05:57:05;;;;;;;5.72;2.97;;;;;;;14.83;80.09;98622.03;5098086;28;20396;-92
2022/09/13 05:59:31;;;;;;;6.30;3.13;;;;;;;14.97;80.53;98632.09;5098612;28;20123;-93
2022/09/13 06:01:57;;;;;;;7.65;3.17;;;;;;;15.05;80.39;98623.69;5097503;28;20035;-93
2022/09/13 06:04:23;;;;;;;5.88;2.38;;;;;;;15.17;74.77;98605.22;5097102;28;20123;-92
2022/09/13 06:06:50;;;;;;;5.10;2.60;;;;;;;15.45;72.90;98614.59;5090641;28;20047;-91
2022/09/13 06:09:17;;;;;;;5.60;2.40;;;;;;;15.64;72.47;98606.53;5098712;28;20043;-91
2022/09/13 06:11:43;;;;;;;6.40;2.50;;;;;;;15.99;71.44;98622.66;5098881;28;20111;-93
2022/09/13 06:14:09;;;;;;;6.43;2.30;;;;;;;16.01;72.04;98610.03;5099187;28;20083;-93
2022/09/13 06:16:35;;;;;;;5.38;2.90;;;;;;;16.15;72.96;98609.31;5099166;28;20051;-95
2022/09/13 06:19:01;;;;;;;5.18;2.63;;;;;;;16.26;71.65;98596.19;5104100;28;20036;-92
2022/09/13 06:21:27;;;;;;;7.03;2.67;;;;;;;16.45;70.99;98617.56;5098063;28;20036;-94
2022/09/13 06:23:55;;;;;;;6.80;2.72;;;;;;;16.49;71.63;98610.22;5097514;28;20044;-93
2022/09/13 06:26:23;;;;;;;4.47;2.80;;;;;;;16.65;71.78;98619.16;5098456;28;20032;-92
2022/09/13 06:28:50;;;;;;;5.22;2.60;;;;;;;16.77;71.15;98620.31;5096549;28;20048;-93
2022/09/13 06:31:17;;;;;;;4.43;2.72;;;;;;;17.02;70.80;98630.59;5094766;28;20040;-93
2022/09/13 06:33:44;;;;;;;5.25;2.67;;;;;;;17.18;70.52;98625.25;5094628;28;20040;-93
2022/09/13 06:36:12;;;;;;;4.82;2.60;;;;;;;17.32;69.78;98619.09;5094610;28;20490;-93
2022/09/13 06:38:38;;;;;;;5.05;2.40;;;;;;;17.45;68.10;98612.91;5098580;28;20066;-93
2022/09/13 06:41:08;;;;;;;3.88;2.60;;;;;;;17.77;67.18;98626.31;5096942;28;20108;-93
2022/09/13 06:43:34;;;;;;;5.60;2.97;;;;;;;17.82;67.43;98605.41;5097158;28;20135;-93
2022/09/13 06:46:02;;;;;;;4.70;2.40;;;;;;;18.00;67.43;98608.84;5102621;28;20036;-94
2022/09/13 06:48:30;;;;;;;4.20;2.35;;;;;;;18.34;66.45;98627.47;5101082;28;20370;-93
2022/09/13 06:50:57;;;;;;;4.35;2.50;;;;;;;18.50;66.64;98620.19;5101584;28;20047;-93
2022/09/13 06:53:23;;;;;;;4.45;2.20;;;;;;;18.76;63.16;98629.31;5100678;28;20074;-92
2022/09/13 06:55:58;;;;;;;4.85;2.60;;;;;;;18.91;60.49;98632.03;5097112;28;20041;-93
2022/09/13 06:58:26;;;;;;;5.85;2.90;;;;;;;19.03;63.59;98626.72;5099296;28;20075;-93
2022/09/13 07:00:52;;;;;;;5.53;3.10;;;;;;;19.26;63.64;98636.03;5103160;28;20043;-95
2022/09/13 07:03:18;;;;;;;5.47;3.13;;;;;;;19.26;62.37;98621.69;5101691;28;20040;-93
2022/09/13 07:05:44;;;;;;;4.95;3.40;;;;;;;19.47;61.87;98632.91;5102841;28;20055;-94
2022/09/13 07:08:10;;;;;;;5.55;3.05;;;;;;;19.55;61.29;98618.91;5101725;28;20037;-93
2022/09/13 07:10:36;;;;;;;4.05;2.63;;;;;;;19.89;59.38;98628.34;5101926;28;20040;-95
2022/09/13 07:13:02;;;;;;;5.75;2.20;;;;;;;19.89;56.83;98613.03;5102549;28;20559;-94
2022/09/13 07:15:29;;;;;;;9.13;2.63;;;;;;;19.61;58.49;98632.84;5105546;28;20040;-94
2022/09/13 07:17:55;;;;;;;5.55;2.70;;;;;;;19.43;59.52;98628.66;5103072;28;20048;-93
2022/09/13 07:20:22;;;;;;;4.05;2.30;;;;;;;19.43;59.28;98626.84;5101906;28;20464;-92
2022/09/13 07:22:48;;;;;;;4.57;2.47;;;;;;;19.47;58.33;98623.00;5102038;28;20044;-93
2022/09/13 07:25:14;;;;;;;4.78;2.17;;;;;;;19.42;58.92;98621.56;5107678;28;20051;-94
2022/09/13 07:27:40;;;;;;;7.68;2.50;;;;;;;19.65;58.01;98603.84;5107910;28;20134;-93
2022/09/13 07:30:07;;;;;;;4.50;2.60;;;;;;;19.92;57.73;98621.88;5109577;28;20044;-93
2022/09/13 07:32:35;;;;;;;4.95;2.50;;;;;;;19.86;58.14;98605.16;5108461;28;20099;-93
2022/09/13 07:35:01;;;;;;;5.13;2.58;;;;;;;20.12;57.87;98629.47;5108680;28;20040;-92
2022/09/13 07:37:27;;;;;;;6.25;2.90;;;;;;;20.25;57.25;98626.78;5106885;28;20040;-93
2022/09/13 07:39:53;;;;;;;7.10;3.00;;;;;;;20.30;57.43;98613.88;5108613;28;20054;-94
2022/09/13 07:42:19;;;;;;;5.38;3.38;;;;;;;20.45;57.42;98618.19;5108295;28;20047;-93
2022/09/13 07:44:45;;;;;;;5.95;3.35;;;;;;;20.38;56.69;98613.31;5101967;28;20044;-93
2022/09/13 07:47:11;;;;;;;6.03;2.70;;;;;;;20.53;58.17;98634.69;5107531;28;20079;-93
2022/09/13 07:49:39;;;;;;;5.82;2.88;;;;;;;20.50;57.68;98631.38;5107049;28;20047;-93
2022/09/13 07:52:05;;;;;;;6.35;3.17;;;;;;;20.57;57.43;98619.19;5107656;28;20050;-93
2022/09/13 07:54:31;;;;;;;4.60;2.90;;;;;;;20.76;57.46;98624.16;5108141;28;20086;-93
2022/09/13 07:56:57;;;;;;;5.00;2.75;;;;;;;21.02;56.56;98633.09;5108152;28;20458;-94
2022/09/13 07:59:23;;;;;;;5.22;2.90;;;;;;;20.91;56.43;98611.38;5107671;28;20040;-92
2022/09/13 08:01:50;;;;;;;4.88;2.53;;;;;;;21.19;56.37;98629.19;5106120;28;20069;-92
2022/09/13 08:04:18;;;;;;;6.03;2.80;;;;;;;21.31;55.75;98622.00;5107876;28;20035;-94
2022/09/13 08:06:45;;;;;;;4.95;2.83;;;;;;;21.23;56.35;98621.69;5105856;28;20040;-93
2022/09/13 08:09:12;;;;;;;6.40;3.10;;;;;;;21.45;55.59;98630.00;5106839;28;20036;-94
2022/09/13 08:11:40;;;;;;;4.32;3.00;;;;;;;21.52;55.60;98633.97;5105386;28;20044;-93
2022/09/13 08:14:08;;;;;;;4.82;3.13;;;;;;;21.63;55.41;98633.16;5105677;28;20043;-94
2022/09/13 08:16:34;;;;;;;7.05;2.70;;;;;;;21.74;55.17;98629.66;5106219;28;20044;-94
2022/09/13 08:19:02;;;;;;;3.90;2.78;;;;;;;21.74;55.19;98614.28;5104632;28;20040;-92
2022/09/13 08:21:32;;;;;;;5.88;3.10;;;;;;;21.98;54.31;98632.34;5103781;28;20036;-93
2022/09/13 08:24:00;;;;;;;7.15;2.88;;;;;;;21.97;54.21;98636.06;5100776;28;20063;-90
2022/09/13 08:26:26;;;;;;;5.65;2.90;;;;;;;21.93;54.38;98638.13;5101325;28;20093;-94
2022/09/13 08:28:56;;;;;;;6.18;3.10;;;;;;;22.13;55.33;98633.88;5098330;28;20050;-93
2022/09/13 08:31:22;;;;;;;5.05;2.88;;;;;;;22.33;53.56;98632.38;5097414;28;20040;-94
2022/09/13 08:33:48;;;;;;;6.05;3.08;;;;;;;22.39;52.96;98619.34;5101193;28;20435;-94
2022/09/13 08:36:15;;;;;;;4.50;3.03;;;;;;;22.44;53.38;98609.84;5098220;28;21218;-93
2022/09/13 08:38:44;;;;;;;7.95;3.00;;;;;;;22.72;52.75;98638.34;5097250;28;20044;-94
2022/09/13 08:41:32;;;;;;;5.00;3.00;;;;;;;22.81;52.74;98631.34;5096755;28;20044;-93
2022/09/13 08:44:03;;;;;;;5.80;3.13;;;;;;;23.00;52.12;98640.72;5099087;28;20123;-91
2022/09/13 08:46:33;;;;;;;6.10;3.15;;;;;;;23.18;51.56;98650.13;5097058;28;20048;-93
2022/09/13 08:49:04;;;;;;;6.68;3.22;;;;;;;23.23;51.48;98636.19;5098260;28;20040;-94
2022/09/13 08:51:35;;;;;;;6.30;3.00;;;;;;;23.27;50.75;98618.66;5100131;28;20523;-94
2022/09/13 08:54:02;;;;;;;5.25;3.15;;;;;;;23.09;50.33;98632.72;5099087;28;20104;-93
2022/09/13 08:56:37;;;;;;;5.70;2.95;;;;;;;23.12;50.61;98629.78;5096658;28;20124;-94
2022/09/13 08:59:20;;;;;;;4.90;2.83;;;;;;;23.28;50.75;98644.81;5099070;28;20048;-93
2022/09/13 09:01:55;;;;;;;7.07;3.08;;;;;;;23.38;49.75;98629.53;5098769;28;20097;-95
2022/09/13 09:04:35;;;;;;;8.95;2.90;;;;;;;23.33;50.56;98650.72;5097514;28;20036;-93
2022/09/13 09:07:05;;;;;;;8.55;2.83;;;;;;;23.41;51.36;98650.97;5094338;28;20044;-94
2022/09/13 09:09:36;;;;;;;6.13;2.80;;;;;;;23.72;50.89;98656.56;5095334;28;20036;-94
2022/09/13 09:12:14;;;;;;;8.40;3.28;;;;;;;23.89;49.75;98649.78;5095217;28;20051;-94
2022/09/13 09:14:45;;;;;;;6.45;3.17;;;;;;;23.98;49.02;98641.72;5092916;28;20063;-96
2022/09/13 09:17:17;;;;;;;7.50;3.10;;;;;;;24.10;48.96;98641.66;5095097;28;20118;-95
2022/09/13 09:19:47;;;;;;;5.97;3.05;;;;;;;24.30;48.71;98637.25;5090701;28;20051;-95
2022/09/13 09:22:16;;;;;;;6.30;3.10;;;;;;;24.41;48.32;98634.47;5096965;28;20082;-94
2022/09/13 09:24:46;;;;;;;6.80;2.90;;;;;;;24.39;47.70;98626.44;5089370;28;20078;-95
2022/09/13 09:27:15;;;;;;;7.18;3.17;;;;;;;24.21;47.73;98646.19;5096178;28;20036;-94
2022/09/13 09:29:43;;;;;;;7.25;3.13;;;;;;;24.03;49.04;98630.47;5094305;28;20051;-95
2022/09/13 09:32:21;;;;;;;8.50;3.60;;;;;;;23.93;49.14;98638.50;5095798;28;20032;-95
2022/09/13 09:34:59;;;;;;;7.97;3.50;;;;;;;24.30;49.55;98637.25;5093771;28;20047;-93
2022/09/13 09:37:28;;;;;;;8.10;3.83;;;;;;;24.46;48.21;98637.63;5096203;28;20066;-95
2022/09/13 09:40:00;;;;;;;5.80;3.28;;;;;;;24.62;48.24;98622.78;5096903;28;20047;-94
2022/09/13 09:42:31;;;;;;;9.95;3.70;;;;;;;24.69;48.22;98616.63;5095920;28;20119;-94
2022/09/13 09:45:03;;;;;;;5.22;3.42;;;;;;;24.87;47.23;98629.63;5095755;28;20039;-95
2022/09/13 09:47:39;;;;;;;9.43;3.50;;;;;;;24.91;46.64;98621.03;5097950;28;20095;-94
2022/09/13 09:50:11;;;;;;;9.68;3.50;;;;;;;24.94;47.31;98622.63;5096527;28;20047;-94
2022/09/13 09:52:40;;;;;;;6.93;3.10;;;;;;;24.70;47.97;98626.53;5096013;28;20043;-94
2022/09/13 09:55:18;;;;;;;6.22;3.40;;;;;;;24.87;47.18;98632.34;5094314;28;20481;-94
2022/09/13 09:57:53;;;;;;;6.70;2.88;;;;;;;24.94;47.30;98611.75;5092057;28;20393;-94
2022/09/13 10:00:22;;;;;;;7.15;3.10;;;;;;;24.94;47.28;98603.59;5096890;28;20086;-94
2022/09/13 10:02:51;;;;;;;5.45;2.95;;;;;;;25.10;47.85;98614.84;5096847;28;20042;-94
2022/09/13 10:05:22;;;;;;;6.13;2.90;;;;;;;25.16;46.37;98594.38;5096370;28;20036;-94
2022/09/13 10:07:56;;;;;;;9.82;3.13;;;;;;;25.27;46.08;98590.72;5097294;28;20040;-94
2022/09/13 10:10:25;;;;;;;7.63;3.33;;;;;;;25.38;46.51;98585.16;5095855;28;20040;-95
2022/09/13 10:12:55;;;;;;;6.32;2.83;;;;;;;25.47;45.91;98591.63;5098306;28;20102;-94
2022/09/13 10:15:24;;;;;;;4.88;3.00;;;;;;;25.50;46.01;98569.56;5100002;28;20040;-94
2022/09/13 10:18:11;;;;;;;6.60;3.05;;;;;;;25.32;45.48;98592.00;5099480;28;20075;-93
2022/09/13 10:20:38;;;;;;;5.97;3.00;;;;;;;25.35;45.60;98571.81;5098854;28;20032;-95
2022/09/13 10:23:26;;;;;;;8.82;3.10;;;;;;;25.46;45.76;98588.06;5097580;28;20055;-94
2022/09/13 10:26:01;;;;;;;;;;;;;;;25.48;46.17;98590.59;5092457;28;20036;-92
2022/09/13 10:28:29;;;;;;;7.28;3.75;;;;;;;25.49;46.48;98571.41;5096474;28;19920;-94
2022/09/13 10:30:59;;;;;;;6.50;3.22;;;;;;;25.72;46.59;98592.94;5090370;28;20052;-94
2022/09/13 10:33:29;;;;;;;4.82;3.10;;;;;;;25.65;45.56;98575.44;5093754;28;20040;-92
2022/09/13 10:35:59;;;;;;;5.55;3.35;;;;;;;25.84;46.17;98591.81;5094657;28;20040;-94
2022/09/13 10:38:29;;;;;;;8.13;3.17;;;;;;;25.95;46.20;98591.69;5094565;28;20035;-94
2022/09/13 10:40:56;;;;;;;6.68;2.97;;;;;;;25.86;45.80;98569.88;5097267;28;20093;-94
2022/09/13 10:43:26;;;;;;;7.28;3.20;;;;;;;25.93;46.33;98560.16;5095189;28;20127;-94
2022/09/13 10:45:54;;;;;;;6.70;3.30;;;;;;;26.06;45.39;98571.59;5095331;28;20094;-92
2022/09/13 10:48:20;;;;;;;4.85;2.90;;;;;;;26.09;45.31;98573.19;5093456;28;20032;-94
2022/09/13 10:51:07;;;;;;;5.22;3.10;;;;;;;26.07;44.05;98569.75;5095038;28;20056;-94
2022/09/13 10:53:36;;;;;;;9.32;3.15;;;;;;;26.19;45.27;98569.44;5090945;28;20045;-93
2022/09/13 10:56:04;;;;;;;6.47;2.60;;;;;;;26.07;41.63;98564.28;5092741;28;20085;-94
2022/09/13 10:58:30;;;;;;;6.85;2.42;;;;;;;26.05;41.00;98564.47;5093580;28;20040;-93
2022/09/13 11:01:31;;;;;;;4.82;2.60;;;;;;;26.04;42.35;98568.16;5094163;28;20100;-93
2022/09/13 11:04:30;;;;;;;5.93;2.83;;;;;;;26.17;42.32;98566.00;5088069;28;20040;-91
2022/09/13 11:07:06;;;;;;;6.43;2.88;;;;;;;26.18;43.29;98555.97;5093482;28;20393;-92
2022/09/13 11:09:41;;;;;;;6.53;3.10;;;;;;;26.31;42.74;98564.69;5091329;28;20097;-94
2022/09/13 11:12:17;;;;;;;7.70;3.20;;;;;;;26.41;42.72;98560.09;5095638;28;20501;-93
2022/09/13 11:14:57;;;;;;;4.32;2.70;;;;;;;26.40;42.71;98544.72;5099235;28;20528;-92
2022/09/13 11:17:44;;;;;;;6.75;2.75;;;;;;;26.46;42.36;98546.03;5096009;28;20048;-91
2022/09/13 11:20:20;;;;;;;6.57;2.80;;;;;;;26.23;40.70;98559.13;5090415;28;20121;-92
2022/09/13 11:23:06;;;;;;;4.93;2.50;;;;;;;26.42;42.02;98564.53;5091767;28;20040;-93
2022/09/13 11:25:44;;;;;;;5.50;2.60;;;;;;;26.53;39.84;98562.66;5092663;28;20071;-94
2022/09/13 11:28:19;;;;;;;6.50;2.65;;;;;;;26.51;39.55;98567.38;5092401;28;20040;-91
2022/09/13 11:31:01;;;;;;;4.78;2.47;;;;;;;26.56;40.20;98549.59;5095170;28;20054;-95
2022/09/13 11:33:40;;;;;;;4.70;2.35;;;;;;;26.72;40.69;98554.44;5097061;28;20047;-91
2022/09/13 11:36:32;;;;;;;6.03;3.00;;;;;;;26.78;39.80;98540.19;5099429;28;20046;-89
2022/09/13 11:39:07;;;;;;;6.55;2.83;;;;;;;26.85;40.36;98543.19;5095774;28;20036;-92
2022/09/13 11:41:42;;;;;;;5.68;2.70;;;;;;;26.80;40.02;98527.25;5093292;28;20051;-92
2022/09/13 11:44:57;;;;;;;4.55;2.72;;;;;;;26.99;40.00;98552.72;5095086;28;20115;-94
2022/09/13 11:47:37;;;;;;;5.45;2.63;;;;;;;27.03;39.07;98552.28;5091660;28;20092;-92
2022/09/13 11:50:22;;;;;;;7.22;2.97;;;;;;;27.11;38.91;98548.78;5097324;28;20043;-93